createdAt,value
2022-09-20T00:01:18.813Z,8.00
2022-09-20T00:03:49.548Z,7.68
2022-09-20T00:06:20.170Z,8.14
2022-09-20T00:08:48.757Z,8.17
2022-09-20T00:11:19.197Z,8.13
2022-09-20T00:13:49.903Z,8.15
2022-09-20T00:16:20.320Z,8.17
2022-09-20T00:18:51.061Z,8.31
2022-09-20T00:21:20.497Z,8.31
2022-09-20T00:23:48.511Z,8.31
2022-09-20T00:26:17.558Z,8.29
2022-09-20T00:28:47.154Z,8.26
2022-09-20T00:31:15.940Z,8.21
2022-09-20T00:34:13.302Z,8.24
2022-09-20T00:36:42.909Z,8.20
2022-09-20T00:39:13.414Z,8.18
2022-09-20T00:41:41.491Z,8.15
2022-09-20T00:44:43.145Z,8.11
2022-09-20T00:47:15.845Z,8.06
2022-09-20T00:49:43.996Z,8.03
2022-09-20T00:52:13.410Z,7.99
2022-09-20T00:54:41.463Z,7.99
2022-09-20T00:57:09.679Z,7.98
2022-09-20T00:59:40.562Z,7.98
2022-09-20T01:02:11.385Z,7.85
2022-09-20T01:04:40.686Z,7.93
2022-09-20T01:07:09.589Z,7.58
2022-09-20T01:09:38.976Z,7.93
2022-09-20T01:12:09.409Z,7.87
2022-09-20T01:14:37.637Z,7.95
2022-09-20T01:17:07.109Z,7.92
2022-09-20T01:19:41.729Z,7.42
2022-09-20T01:22:18.581Z,7.96
2022-09-20T01:24:52.515Z,7.90
2022-09-20T01:27:25.049Z,8.00
2022-09-20T01:30:08.164Z,8.03
2022-09-20T01:33:04.197Z,8.09
2022-09-20T01:35:34.408Z,8.12
2022-09-20T01:38:20.282Z,8.16
2022-09-20T01:40:58.014Z,8.19
2022-09-20T01:43:30.307Z,8.22
2022-09-20T01:46:00.335Z,8.26
2022-09-20T01:48:34.725Z,7.85
2022-09-20T01:51:26.343Z,8.31
2022-09-20T01:54:24.357Z,8.34
2022-09-20T01:57:10.691Z,8.38
2022-09-20T02:00:07.133Z,8.38
2022-09-20T02:03:17.962Z,8.38
2022-09-20T02:06:08.146Z,8.34
2022-09-20T02:08:51.070Z,8.38
2022-09-20T02:11:20.278Z,8.29
2022-09-20T02:14:06.511Z,8.36
2022-09-20T02:16:45.924Z,8.33
2022-09-20T02:19:37.555Z,8.13
2022-09-20T02:22:38.892Z,8.33
2022-09-20T02:25:19.779Z,8.32
2022-09-20T02:27:57.228Z,8.31
2022-09-20T02:30:32.591Z,7.73
2022-09-20T02:33:21.509Z,8.32
2022-09-20T02:36:03.399Z,8.32
2022-09-20T02:38:42.061Z,7.81
2022-09-20T02:41:28.026Z,8.33
2022-09-20T02:44:01.542Z,8.30
2022-09-20T02:46:32.763Z,8.29
2022-09-20T02:49:05.651Z,8.25
2022-09-20T02:51:39.655Z,8.20
2022-09-20T02:54:15.817Z,7.98
2022-09-20T02:56:48.678Z,8.07
2022-09-20T02:59:26.534Z,7.98
2022-09-20T03:02:03.851Z,8.00
2022-09-20T03:04:39.949Z,7.99
2022-09-20T03:07:13.765Z,7.49
2022-09-20T03:09:47.795Z,7.98
2022-09-20T03:12:20.677Z,7.50
2022-09-20T03:14:57.039Z,7.99
2022-09-20T03:17:32.667Z,7.99
2022-09-20T03:20:16.779Z,7.95
2022-09-20T03:22:55.996Z,7.95
2022-09-20T03:25:48.135Z,7.95
2022-09-20T03:28:27.424Z,7.53
2022-09-20T03:31:02.098Z,7.83
2022-09-20T03:33:36.430Z,7.83
2022-09-20T03:36:14.597Z,7.96
2022-09-20T03:38:59.880Z,7.93
2022-09-20T03:41:55.317Z,7.85
2022-09-20T03:44:33.353Z,7.84
2022-09-20T03:47:09.308Z,7.82
2022-09-20T03:49:59.628Z,7.77
2022-09-20T03:52:40.190Z,7.16
2022-09-20T03:55:31.837Z,7.16
2022-09-20T03:58:24.299Z,7.58
2022-09-20T04:01:04.743Z,7.62
2022-09-20T04:03:40.058Z,7.60
2022-09-20T04:06:35.418Z,7.59
2022-09-20T04:09:39.297Z,7.64
2022-09-20T04:12:13.835Z,7.61
2022-09-20T04:14:45.283Z,7.58
2022-09-20T04:17:26.527Z,7.61
2022-09-20T04:20:00.059Z,7.59
2022-09-20T04:22:30.607Z,7.62
2022-09-20T04:25:02.559Z,7.61
2022-09-20T04:27:37.356Z,7.65
2022-09-20T04:30:08.050Z,7.71
2022-09-20T04:32:39.604Z,7.74
2022-09-20T04:35:42.087Z,7.71
2022-09-20T04:38:12.185Z,7.55
2022-09-20T04:40:55.271Z,7.64
2022-09-20T04:44:14.138Z,7.64
2022-09-20T04:47:06.017Z,7.64
2022-09-20T04:49:58.700Z,7.66
2022-09-20T04:52:40.313Z,7.60
2022-09-20T04:55:26.924Z,7.62
2022-09-20T04:58:27.587Z,7.63
2022-09-20T05:01:19.477Z,7.67
2022-09-20T05:04:10.906Z,7.55
2022-09-20T05:07:00.284Z,7.63
2022-09-20T05:09:48.258Z,7.74
2022-09-20T05:12:42.643Z,7.68
2022-09-20T05:15:24.992Z,7.14
2022-09-20T05:18:10.186Z,7.65
2022-09-20T05:20:51.507Z,7.62
2022-09-20T05:23:46.346Z,7.59
2022-09-20T05:26:19.438Z,7.53
2022-09-20T05:28:54.561Z,7.60
2022-09-20T05:31:30.430Z,7.66
2022-09-20T05:34:03.457Z,7.70
2022-09-20T05:36:40.832Z,7.71
2022-09-20T05:39:20.117Z,7.22
2022-09-20T05:41:54.695Z,7.65
2022-09-20T05:44:31.168Z,7.70
2022-09-20T05:47:05.201Z,7.85
2022-09-20T05:49:43.030Z,7.94
2022-09-20T05:52:28.158Z,8.01
2022-09-20T05:55:27.084Z,8.09
2022-09-20T05:58:04.192Z,8.18
2022-09-20T06:00:35.609Z,8.21
2022-09-20T06:03:11.965Z,7.83
2022-09-20T06:05:49.214Z,8.33
2022-09-20T06:08:37.336Z,8.38
2022-09-20T06:11:15.370Z,8.52
2022-09-20T06:14:01.216Z,8.57
2022-09-20T06:16:36.546Z,8.49
2022-09-20T06:19:15.086Z,8.68
2022-09-20T06:21:51.202Z,8.87
2022-09-20T06:24:36.964Z,9.02
2022-09-20T06:27:09.084Z,9.05
2022-09-20T06:29:39.593Z,9.18
2022-09-20T06:32:08.264Z,9.35
2022-09-20T06:34:36.718Z,9.37
2022-09-20T06:37:31.018Z,9.55
2022-09-20T06:40:24.938Z,9.57
2022-09-20T06:42:53.290Z,9.82
2022-09-20T06:45:21.384Z,9.73
2022-09-20T06:47:49.636Z,9.97
2022-09-20T06:50:18.596Z,10.29
2022-09-20T06:52:47.576Z,10.55
2022-09-20T06:55:24.955Z,10.61
2022-09-20T06:57:55.696Z,10.95
2022-09-20T07:00:23.807Z,10.92
2022-09-20T07:02:52.438Z,10.96
2022-09-20T07:05:26.933Z,10.72
2022-09-20T07:07:58.642Z,10.94
2022-09-20T07:10:29.237Z,11.20
2022-09-20T07:13:00.429Z,10.38
2022-09-20T07:15:29.179Z,10.96
2022-09-20T07:17:57.468Z,10.52
2022-09-20T07:20:25.626Z,10.85
2022-09-20T07:22:54.004Z,10.82
2022-09-20T07:25:22.075Z,10.75
2022-09-20T07:27:52.156Z,10.78
2022-09-20T07:30:21.581Z,10.62
2022-09-20T07:32:50.068Z,10.32
2022-09-20T07:35:18.128Z,10.17
2022-09-20T07:37:47.009Z,9.95
2022-09-20T07:40:15.914Z,9.85
2022-09-20T07:42:46.106Z,10.10
2022-09-20T07:45:15.769Z,10.21
2022-09-20T07:47:44.938Z,10.40
2022-09-20T07:50:13.115Z,10.09
2022-09-20T07:52:41.223Z,10.64
2022-09-20T07:55:10.223Z,10.95
2022-09-20T07:57:38.860Z,11.17
2022-09-20T08:00:09.095Z,11.22
2022-09-20T08:02:39.422Z,11.20
2022-09-20T08:05:08.742Z,10.75
2022-09-20T08:07:36.729Z,10.86
2022-09-20T08:10:04.890Z,11.11
2022-09-20T08:15:21.431Z,11.27
2022-09-20T08:17:51.021Z,11.64
2022-09-20T08:20:19.555Z,11.75
2022-09-20T08:23:06.318Z,11.85
2022-09-20T08:25:35.931Z,11.60
2022-09-20T08:28:04.122Z,11.73
2022-09-20T08:30:32.321Z,11.70
2022-09-20T08:33:02.262Z,11.80
2022-09-20T08:35:30.675Z,11.93
2022-09-20T08:39:57.299Z,12.04
2022-09-20T08:40:49.643Z,12.20
2022-09-20T08:43:22.286Z,11.81
2022-09-20T08:45:50.946Z,11.90
2022-09-20T08:48:21.802Z,12.25
2022-09-20T08:50:50.209Z,12.40
2022-09-20T08:53:21.656Z,12.79
2022-09-20T08:55:49.986Z,11.59
2022-09-20T08:58:19.241Z,13.13
2022-09-20T09:00:47.936Z,13.20
2022-09-20T09:03:18.552Z,13.03
2022-09-20T09:05:50.597Z,11.70
2022-09-20T09:08:21.568Z,12.80
2022-09-20T09:10:54.926Z,12.56
2022-09-20T09:13:26.796Z,12.08
2022-09-20T09:16:01.237Z,11.38
2022-09-20T09:18:34.928Z,11.43
2022-09-20T09:21:08.151Z,11.31
2022-09-20T09:23:44.837Z,11.20
2022-09-20T09:26:18.548Z,11.10
2022-09-20T09:28:46.870Z,11.11
2022-09-20T09:31:23.020Z,11.20
2022-09-20T09:33:51.202Z,11.40
2022-09-20T09:36:24.665Z,11.02
2022-09-20T09:39:17.730Z,10.97
2022-09-20T09:41:46.484Z,11.45
2022-09-20T09:44:23.178Z,12.63
2022-09-20T09:46:53.549Z,15.62
2022-09-20T09:49:23.301Z,16.64
2022-09-20T09:52:11.942Z,17.38
2022-09-20T09:54:41.639Z,16.45
2022-09-20T09:57:23.831Z,14.91
2022-09-20T10:00:02.469Z,14.42
2022-09-20T10:03:09.166Z,13.97
2022-09-20T10:05:46.073Z,12.48
2022-09-20T10:08:27.242Z,12.07
2022-09-20T10:11:03.216Z,11.76
2022-09-20T10:13:38.241Z,12.36
2022-09-20T10:16:14.541Z,15.19
2022-09-20T10:18:49.239Z,16.23
2022-09-20T10:21:28.654Z,15.84
2022-09-20T10:24:07.555Z,15.40
2022-09-20T10:26:47.076Z,14.74
2022-09-20T10:29:27.588Z,13.89
2022-09-20T10:32:05.529Z,13.40
2022-09-20T10:35:09.251Z,13.87
2022-09-20T10:37:49.093Z,13.64
2022-09-20T10:40:46.760Z,14.38
2022-09-20T10:43:22.342Z,14.94
2022-09-20T10:46:27.575Z,17.03
2022-09-20T10:48:49.161Z,17.45
2022-09-20T10:51:26.507Z,15.30
2022-09-20T10:54:02.858Z,13.91
2022-09-20T10:56:34.910Z,13.21
2022-09-20T10:59:27.232Z,12.84
2022-09-20T11:02:08.655Z,12.36
2022-09-20T11:04:59.217Z,11.57
2022-09-20T11:07:38.650Z,11.18
2022-09-20T11:10:16.046Z,10.81
2022-09-20T11:12:50.880Z,10.38
2022-09-20T11:15:22.972Z,10.19
2022-09-20T11:17:57.501Z,10.19
2022-09-20T11:20:28.387Z,9.74
2022-09-20T11:22:59.363Z,9.81
2022-09-20T11:25:34.289Z,10.23
2022-09-20T11:28:10.677Z,10.28
2022-09-20T11:30:41.899Z,10.48
2022-09-20T11:33:15.992Z,10.42
2022-09-20T11:35:48.195Z,10.43
2022-09-20T11:38:22.262Z,9.81
2022-09-20T11:40:54.020Z,10.34
2022-09-20T11:43:31.334Z,10.21
2022-09-20T11:46:02.041Z,10.07
2022-09-20T11:48:36.582Z,9.83
2022-09-20T11:51:31.422Z,9.57
2022-09-20T11:54:17.005Z,9.69
2022-09-20T11:56:51.329Z,9.85
2022-09-20T11:59:30.051Z,9.69
2022-09-20T12:02:01.883Z,9.56
2022-09-20T12:04:34.936Z,9.63
2022-09-20T12:07:10.603Z,9.94
2022-09-20T12:09:42.594Z,10.21
2022-09-20T12:12:20.421Z,10.20
2022-09-20T12:14:57.577Z,10.52
2022-09-20T12:18:17.793Z,10.75
2022-09-20T12:21:15.608Z,10.81
2022-09-20T12:24:02.775Z,10.83
2022-09-20T12:26:40.614Z,11.09
2022-09-20T12:29:54.442Z,11.16
2022-09-20T12:32:52.020Z,11.33
2022-09-20T12:36:00.169Z,12.03
2022-09-20T12:38:31.306Z,12.38
2022-09-20T12:41:15.146Z,13.26
2022-09-20T12:43:56.709Z,14.22
2022-09-20T12:46:30.068Z,14.56
2022-09-20T12:49:56.199Z,15.05
2022-09-20T12:52:53.906Z,14.76
2022-09-20T12:55:40.041Z,14.88
2022-09-20T12:58:23.114Z,14.89
2022-09-20T13:00:53.418Z,15.06
2022-09-20T13:03:28.790Z,14.67
2022-09-20T13:06:24.218Z,14.27
2022-09-20T13:08:56.818Z,14.26
2022-09-20T13:11:27.486Z,14.37
2022-09-20T13:13:58.673Z,14.28
2022-09-20T13:16:30.004Z,14.16
2022-09-20T13:19:05.306Z,13.09
2022-09-20T13:21:37.488Z,12.72
2022-09-20T13:24:06.010Z,11.97
2022-09-20T13:26:36.730Z,11.27
2022-09-20T13:29:05.797Z,11.00
2022-09-20T13:31:35.887Z,10.84
2022-09-20T13:34:21.787Z,10.50
2022-09-20T13:36:56.355Z,9.77
2022-09-20T13:39:30.752Z,10.06
2022-09-20T13:42:03.582Z,9.86
2022-09-20T13:44:34.499Z,9.58
2022-09-20T13:47:02.745Z,9.58
2022-09-20T13:49:33.221Z,9.35
2022-09-20T13:52:17.085Z,9.43
2022-09-20T13:54:45.135Z,8.92
2022-09-20T13:57:19.110Z,9.30
2022-09-20T13:59:47.837Z,9.39
2022-09-20T14:02:24.103Z,9.59
2022-09-20T14:04:55.852Z,9.95
2022-09-20T14:07:28.197Z,10.40
2022-09-20T14:09:57.197Z,11.06
2022-09-20T14:12:25.764Z,11.48
2022-09-20T14:14:54.355Z,11.92
2022-09-20T14:17:24.844Z,11.87
2022-09-20T14:19:56.035Z,11.87
2022-09-20T14:22:26.953Z,12.09
2022-09-20T14:25:00.990Z,12.85
2022-09-20T14:27:31.248Z,13.50
2022-09-20T14:29:59.995Z,13.75
2022-09-20T14:32:44.894Z,14.23
2022-09-20T14:35:17.861Z,14.24
2022-09-20T14:37:49.719Z,14.73
2022-09-20T14:40:23.495Z,14.99
2022-09-20T14:42:55.074Z,14.78
2022-09-20T14:45:28.700Z,14.60
2022-09-20T14:48:00.030Z,14.49
2022-09-20T14:50:31.108Z,13.94
2022-09-20T14:53:23.881Z,13.84
2022-09-20T14:56:09.202Z,13.68
2022-09-20T14:59:05.632Z,13.47
2022-09-20T15:01:34.713Z,13.16
2022-09-20T15:04:09.345Z,12.77
2022-09-20T15:06:39.024Z,12.51
2022-09-20T15:09:10.313Z,12.21
2022-09-20T15:11:38.293Z,12.21
2022-09-20T15:14:06.308Z,11.58
2022-09-20T15:16:34.696Z,11.62
2022-09-20T15:19:03.028Z,11.66
2022-09-20T15:21:31.136Z,11.71
2022-09-20T15:23:59.358Z,12.27
2022-09-20T15:26:29.397Z,12.92
2022-09-20T15:28:57.458Z,13.36
2022-09-20T15:31:25.539Z,13.31
2022-09-20T15:33:53.481Z,12.85
2022-09-20T15:36:21.625Z,12.51
2022-09-20T15:38:50.268Z,12.10
2022-09-20T15:41:18.245Z,11.74
2022-09-20T15:43:50.354Z,11.44
2022-09-20T15:46:20.782Z,12.39
2022-09-20T15:48:49.262Z,12.65
2022-09-20T15:51:17.610Z,12.51
2022-09-20T15:53:49.355Z,12.07
2022-09-20T15:56:19.394Z,11.67
2022-09-20T15:58:50.321Z,11.57
2022-09-20T16:01:19.481Z,13.03
2022-09-20T16:03:49.274Z,14.09
2022-09-20T16:06:19.193Z,14.50
2022-09-20T16:08:48.721Z,14.07
2022-09-20T16:11:22.724Z,13.32
2022-09-20T16:13:55.851Z,12.55
2022-09-20T16:16:24.334Z,11.96
2022-09-20T16:19:11.912Z,11.49
2022-09-20T16:21:42.204Z,10.97
2022-09-20T16:24:13.502Z,10.64
2022-09-20T16:26:42.106Z,10.36
2022-09-20T16:29:12.547Z,10.08
2022-09-20T16:31:41.859Z,10.00
2022-09-20T16:34:14.154Z,9.70
2022-09-20T16:36:43.514Z,9.74
2022-09-20T16:39:12.765Z,9.50
2022-09-20T16:41:40.851Z,9.45
2022-09-20T16:44:09.407Z,9.36
2022-09-20T16:46:38.911Z,9.28
2022-09-20T16:49:09.464Z,9.14
2022-09-20T16:51:38.971Z,9.13
2022-09-20T16:54:12.071Z,9.11
2022-09-20T16:56:41.241Z,9.05
2022-09-20T16:59:09.504Z,8.99
2022-09-20T17:01:39.793Z,8.78
2022-09-20T17:04:09.249Z,8.88
2022-09-20T17:06:39.897Z,8.88
2022-09-20T17:09:08.879Z,8.88
2022-09-20T17:11:38.354Z,8.85
2022-09-20T17:14:06.872Z,8.92
2022-09-20T17:16:36.933Z,8.89
2022-09-20T17:19:08.754Z,8.79
2022-09-20T17:21:38.159Z,8.79
2022-09-20T17:24:07.505Z,8.77
2022-09-20T17:26:38.378Z,8.75
2022-09-20T17:29:07.720Z,8.76
2022-09-20T17:31:37.339Z,8.81
2022-09-20T17:34:09.765Z,8.75
2022-09-20T17:36:39.762Z,8.23
2022-09-20T17:39:10.045Z,8.79
2022-09-20T17:41:38.524Z,8.72
2022-09-20T17:44:08.372Z,8.65
2022-09-20T17:46:40.617Z,8.50
2022-09-20T17:49:14.195Z,8.58
2022-09-20T17:51:43.633Z,8.50
2022-09-20T17:54:14.196Z,8.45
2022-09-20T17:56:43.615Z,8.33
2022-09-20T17:59:12.618Z,8.21
2022-09-20T18:01:41.859Z,8.06
2022-09-20T18:04:13.264Z,7.92
2022-09-20T18:06:44.578Z,7.96
2022-09-20T18:09:15.434Z,7.92
2022-09-20T18:11:46.431Z,7.86
2022-09-20T18:14:14.667Z,7.64
2022-09-20T18:16:44.272Z,7.65
2022-09-20T18:19:15.955Z,7.40
2022-09-20T18:21:46.553Z,7.53
2022-09-20T18:24:20.833Z,7.25
2022-09-20T18:26:49.001Z,7.40
2022-09-20T18:29:18.228Z,7.31
2022-09-20T18:31:48.968Z,7.33
2022-09-20T18:34:21.936Z,6.77
2022-09-20T18:36:53.601Z,7.28
2022-09-20T18:39:23.108Z,7.22
2022-09-20T18:41:51.514Z,7.19
2022-09-20T18:44:20.123Z,7.17
2022-09-20T18:46:48.585Z,7.15
2022-09-20T18:49:17.268Z,7.04
2022-09-20T18:51:47.495Z,6.85
2022-09-20T18:54:16.074Z,6.85
2022-09-20T18:56:45.716Z,6.94
2022-09-20T18:59:15.880Z,6.91
2022-09-20T19:02:01.740Z,6.92
2022-09-20T19:04:49.332Z,6.91
2022-09-20T19:07:22.952Z,6.89
2022-09-20T19:09:54.675Z,6.86
2022-09-20T19:12:28.046Z,6.89
2022-09-20T19:15:07.161Z,6.93
2022-09-20T19:17:48.001Z,6.92
2022-09-20T19:20:22.164Z,6.94
2022-09-20T19:23:04.406Z,6.94
2022-09-20T19:25:37.990Z,6.83
2022-09-20T19:28:06.531Z,6.90
2022-09-20T19:30:35.985Z,6.88
2022-09-20T19:33:04.651Z,6.90
2022-09-20T19:35:38.241Z,6.77
2022-09-20T19:38:15.581Z,6.80
2022-09-20T19:40:47.432Z,6.88
2022-09-20T19:43:35.070Z,6.87
2022-09-20T19:46:10.503Z,6.87
2022-09-20T19:48:40.495Z,6.76
2022-09-20T19:51:12.331Z,6.74
2022-09-20T19:53:42.816Z,6.80
2022-09-20T19:56:23.021Z,6.72
2022-09-20T19:58:53.129Z,6.15
2022-09-20T20:01:22.657Z,6.67
2022-09-20T20:03:51.410Z,6.67
2022-09-20T20:06:23.194Z,6.57
2022-09-20T20:08:56.419Z,6.64
2022-09-20T20:11:33.664Z,6.63
2022-09-20T20:14:08.225Z,6.58
2022-09-20T20:16:46.861Z,6.59
2022-09-20T20:19:31.630Z,6.60
2022-09-20T20:22:02.315Z,6.51
2022-09-20T20:24:35.405Z,6.63
2022-09-20T20:27:04.579Z,6.61
2022-09-20T20:29:51.016Z,6.08
2022-09-20T20:32:19.068Z,6.53
2022-09-20T20:34:47.274Z,6.50
2022-09-20T20:37:18.149Z,6.51
2022-09-20T20:39:47.586Z,6.47
2022-09-20T20:42:15.993Z,6.40
2022-09-20T20:44:44.161Z,6.40
2022-09-20T20:47:12.216Z,6.46
2022-09-20T20:49:40.236Z,6.46
2022-09-20T20:52:09.016Z,6.47
2022-09-20T20:54:37.527Z,6.34
2022-09-20T20:57:07.087Z,6.45
2022-09-20T20:59:35.128Z,6.44
2022-09-20T21:02:07.952Z,6.42
2022-09-20T21:04:37.150Z,6.45
2022-09-20T21:07:07.724Z,6.45
2022-09-20T21:09:36.019Z,6.34
2022-09-20T21:12:05.162Z,6.44
2022-09-20T21:14:35.330Z,6.46
2022-09-20T21:17:11.032Z,6.49
2022-09-20T21:19:39.170Z,6.52
2022-09-20T21:22:09.542Z,6.40
2022-09-20T21:24:38.070Z,6.08
2022-09-20T21:27:08.521Z,6.54
2022-09-20T21:29:38.338Z,6.55
2022-09-20T21:32:10.794Z,6.50
2022-09-20T21:34:39.727Z,6.60
2022-09-20T21:37:07.890Z,6.61
2022-09-20T21:39:36.001Z,6.62
2022-09-20T21:42:12.928Z,6.60
2022-09-20T21:44:43.268Z,6.60
2022-09-20T21:47:11.421Z,6.60
2022-09-20T21:49:39.367Z,6.60
2022-09-20T21:52:15.279Z,6.45
2022-09-20T21:54:46.443Z,6.58
2022-09-20T21:57:14.757Z,6.55
2022-09-20T21:59:44.094Z,6.41
2022-09-20T22:02:12.208Z,6.51
2022-09-20T22:04:42.599Z,6.52
2022-09-20T22:07:10.719Z,6.53
2022-09-20T22:09:40.116Z,6.57
2022-09-20T22:12:08.266Z,6.55
2022-09-20T22:14:39.438Z,6.59
2022-09-20T22:17:08.786Z,6.59
2022-09-20T22:19:37.750Z,6.60
2022-09-20T22:22:05.909Z,6.60
2022-09-20T22:24:33.978Z,6.60
2022-09-20T22:27:02.062Z,6.63
2022-09-20T22:29:30.063Z,6.64
2022-09-20T22:31:58.049Z,6.55
2022-09-20T22:34:27.391Z,6.65
2022-09-20T22:36:55.727Z,6.64
2022-09-20T22:39:23.862Z,6.62
2022-09-20T22:41:52.297Z,6.06
2022-09-20T22:44:26.400Z,6.61
2022-09-20T22:46:54.509Z,6.60
2022-09-20T22:49:23.186Z,6.56
2022-09-20T22:51:52.601Z,6.59
2022-09-20T22:54:20.708Z,6.61
2022-09-20T22:56:48.815Z,6.61
2022-09-20T22:59:17.127Z,6.57
2022-09-20T23:01:46.296Z,6.08
2022-09-20T23:04:16.558Z,6.60
2022-09-20T23:06:47.028Z,6.12
2022-09-20T23:09:17.977Z,6.58
2022-09-20T23:11:46.587Z,6.48
2022-09-20T23:14:16.066Z,6.55
2022-09-20T23:16:47.156Z,6.55
2022-09-20T23:19:16.150Z,6.10
2022-09-20T23:21:44.957Z,6.34
2022-09-20T23:24:16.534Z,6.39
2022-09-20T23:26:45.307Z,6.01
2022-09-20T23:29:15.367Z,6.45
2022-09-20T23:31:46.342Z,6.42
2022-09-20T23:34:18.961Z,6.39
2022-09-20T23:36:47.927Z,6.39
2022-09-20T23:39:17.459Z,6.37
2022-09-20T23:41:50.625Z,6.39
2022-09-20T23:44:19.314Z,6.35
2022-09-20T23:46:47.755Z,6.30
2022-09-20T23:49:16.003Z,6.34
2022-09-20T23:51:43.947Z,6.41
2022-09-20T23:54:11.914Z,6.43
2022-09-20T23:56:42.846Z,5.99
2022-09-20T23:59:10.879Z,6.37
